createdAt,value
2018-07-22T07:13:17.072Z,92011.97
2018-07-22T07:15:54.641Z,92004.70
2018-07-22T07:18:22.471Z,92008.63
2018-07-22T07:20:50.292Z,92000.40
2018-07-22T07:23:18.072Z,92000.50
2018-07-22T07:25:45.875Z,92004.73
2018-07-22T07:28:13.618Z,91998.27
2018-07-22T07:30:41.357Z,92004.67
2018-07-22T07:33:09.460Z,91999.70
2018-07-22T07:35:37.433Z,92000.50
2018-07-22T07:38:05.179Z,92004.02
2018-07-22T07:40:32.961Z,91999.67
2018-07-22T07:43:00.735Z,91995.48
2018-07-22T07:45:28.465Z,91991.55
2018-07-22T07:47:56.336Z,91993.81
2018-07-22T07:50:24.133Z,91986.53
2018-07-22T07:52:51.866Z,91988.56
2018-07-22T07:55:19.965Z,91983.89
2018-07-22T07:57:47.777Z,91974.26
2018-07-22T08:00:15.514Z,91968.08
2018-07-22T08:02:43.300Z,91967.83
2018-07-22T08:05:11.062Z,91971.69
2018-07-22T08:07:38.844Z,91963.54
2018-07-22T08:10:06.838Z,91958.45
2018-07-22T08:12:34.624Z,91957.81
2018-07-22T08:15:02.918Z,91953.98
2018-07-22T08:17:30.913Z,91952.45
2018-07-22T08:19:58.892Z,91948.11
2018-07-22T08:22:26.650Z,91944.23
2018-07-22T08:24:54.540Z,91938.89
2018-07-22T08:27:22.310Z,91937.59
2018-07-22T08:29:50.090Z,91938.25
2018-07-22T08:32:17.893Z,91931.88
2018-07-22T08:34:45.651Z,91930.49
2018-07-22T08:37:13.406Z,91927.95
2018-07-22T08:39:41.604Z,91918.35
2018-07-22T08:42:09.417Z,91914.27
2018-07-22T08:44:37.271Z,91907.33
2018-07-22T08:47:05.269Z,91907.36
2018-07-22T08:49:33.129Z,91894.75
2018-07-22T08:52:00.891Z,91894.66
2018-07-22T08:54:28.701Z,91892.36
2018-07-22T08:56:56.458Z,91887.50
2018-07-22T08:59:25.063Z,91882.31
2018-07-22T09:01:53.337Z,91883.67
2018-07-22T09:04:21.173Z,91879.98
2018-07-22T09:06:48.978Z,91874.12
2018-07-22T09:09:16.819Z,91874.62
2018-07-22T09:11:47.562Z,91869.54
2018-07-22T09:14:15.343Z,91867.21
2018-07-22T09:16:44.141Z,91859.83
2018-07-22T09:19:11.925Z,91860.95
2018-07-22T09:21:46.216Z,91857.80
2018-07-22T09:24:13.997Z,91856.34
2018-07-22T09:26:41.804Z,91853.59
2018-07-22T09:29:09.662Z,91844.44
2018-07-22T09:31:37.429Z,91845.64
2018-07-22T09:34:05.169Z,91844.25
2018-07-22T09:36:36.286Z,91840.14
2018-07-22T09:39:08.235Z,91838.09
2018-07-22T09:41:36.119Z,91833.39
2018-07-22T09:44:04.267Z,91830.13
2018-07-22T09:46:32.063Z,91825.31
2018-07-22T09:48:59.894Z,91832.51
2018-07-22T09:51:27.725Z,91829.78
2018-07-22T09:53:55.520Z,91831.17
2018-07-22T09:56:23.304Z,91839.59
2018-07-22T09:58:51.132Z,91836.16
2018-07-22T10:01:18.975Z,91830.36
2018-07-22T10:03:46.781Z,91826.61
2018-07-22T10:06:14.906Z,91822.16
2018-07-22T10:08:42.654Z,91822.27
2018-07-22T10:11:10.550Z,91820.98
2018-07-22T10:13:38.319Z,91825.50
2018-07-22T10:16:06.053Z,91814.23
2018-07-22T10:18:34.207Z,91814.02
2018-07-22T10:21:02.051Z,91815.16
2018-07-22T10:23:30.188Z,91814.84
2018-07-22T10:25:58.015Z,91809.53
2018-07-22T10:28:26.145Z,91797.59
2018-07-22T10:30:53.944Z,91804.41
2018-07-22T10:33:21.701Z,91798.05
2018-07-22T10:35:49.502Z,91793.05
2018-07-22T10:38:17.273Z,91786.78
2018-07-22T10:40:45.134Z,91776.65
2018-07-22T10:43:12.921Z,91773.61
2018-07-22T10:45:41.200Z,91767.14
2018-07-22T10:48:08.954Z,91768.34
2018-07-22T10:50:36.968Z,91767.53
2018-07-22T10:53:04.991Z,91759.91
2018-07-22T10:55:32.734Z,91754.48
2018-07-22T10:58:00.616Z,91755.10
2018-07-22T11:00:28.396Z,91749.30
2018-07-22T11:02:56.145Z,91751.59
2018-07-22T11:05:23.976Z,91746.60
2018-07-22T11:07:51.722Z,91742.22
2018-07-22T11:10:19.472Z,91741.46
2018-07-22T11:12:47.654Z,91732.75
2018-07-22T11:15:15.399Z,91733.03
2018-07-22T11:17:43.308Z,91727.77
2018-07-22T11:20:11.456Z,91722.93
2018-07-22T11:22:39.225Z,91712.56
2018-07-22T11:25:10.068Z,91720.20
2018-07-22T11:27:37.869Z,91716.57
2018-07-22T11:30:05.680Z,91709.69
2018-07-22T11:32:33.461Z,91696.73
2018-07-22T11:35:02.500Z,91692.91
2018-07-22T11:37:30.278Z,91695.05
2018-07-22T11:39:58.061Z,91692.70
2018-07-22T11:42:25.840Z,91687.82
2018-07-22T11:44:53.589Z,91687.48
2018-07-22T11:47:21.328Z,91677.34
2018-07-22T11:51:14.789Z,91672.44
2018-07-22T11:53:42.979Z,91675.50
2018-07-22T11:56:10.738Z,91672.98
2018-07-22T11:58:38.557Z,91671.05
2018-07-22T12:01:06.292Z,91668.25
2018-07-22T12:03:34.074Z,91663.25
2018-07-22T12:06:01.883Z,91665.71
2018-07-22T12:08:29.655Z,91666.98
2018-07-22T12:10:57.391Z,91665.73
2018-07-22T12:13:26.516Z,91665.71
2018-07-22T12:15:54.255Z,91657.89
2018-07-22T12:18:22.917Z,91656.61
2018-07-22T12:21:07.596Z,91662.36
2018-07-22T12:23:37.472Z,91651.75
2018-07-22T12:26:05.268Z,91650.64
2018-07-22T12:28:37.529Z,91648.13
2018-07-22T12:31:05.717Z,91638.61
2018-07-22T12:33:33.609Z,91637.44
2018-07-22T12:36:06.380Z,91637.67
2018-07-22T12:38:34.155Z,91630.30
2018-07-22T12:41:02.021Z,91632.20
2018-07-22T12:43:29.872Z,91631.56
2018-07-22T12:45:59.019Z,91634.09
2018-07-22T12:48:27.029Z,91641.84
2018-07-22T12:50:56.085Z,91638.52
2018-07-22T12:53:25.586Z,91626.88
2018-07-22T12:55:55.595Z,91628.09
2018-07-22T12:58:26.587Z,91624.87
2018-07-22T13:00:54.774Z,91632.73
2018-07-22T13:03:22.586Z,91630.86
2018-07-22T13:05:50.477Z,91631.92
2018-07-22T13:08:23.759Z,91627.92
2018-07-22T13:10:53.288Z,91621.31
2018-07-22T13:13:21.060Z,91616.67
2018-07-22T13:15:48.998Z,91625.73
2018-07-22T13:18:16.795Z,91634.95
2018-07-22T13:20:44.566Z,91639.44
2018-07-22T13:23:12.342Z,91636.16
2018-07-22T13:31:04.325Z,91615.34
2018-07-22T13:33:32.273Z,91608.63
2018-07-22T13:36:01.646Z,91602.72
2018-07-22T13:38:29.567Z,91600.14
2018-07-22T13:41:00.708Z,91600.53
2018-07-22T13:43:32.382Z,91608.23
2018-07-22T13:46:00.427Z,91614.17
2018-07-22T13:48:28.514Z,91604.83
2018-07-22T13:50:59.267Z,91602.75
2018-07-22T13:53:27.793Z,91600.52
2018-07-22T13:55:55.852Z,91599.03
2018-07-22T13:58:27.244Z,91593.01
2018-07-22T14:01:09.564Z,91600.41
2018-07-22T14:03:37.529Z,91593.23
2018-07-22T14:06:05.305Z,91599.58
2018-07-22T14:08:33.057Z,91598.47
2018-07-22T14:11:02.110Z,91593.42
2018-07-22T14:13:29.850Z,91587.23
2018-07-22T14:15:57.852Z,91582.19
2018-07-22T14:18:25.750Z,91580.93
2018-07-22T14:20:53.496Z,91576.89
2018-07-22T14:23:21.276Z,91572.19
2018-07-22T14:25:49.132Z,91578.06
2018-07-22T14:28:20.984Z,91568.23
2018-07-22T14:30:48.780Z,91572.18
2018-07-22T14:33:16.927Z,91569.83
2018-07-22T14:35:44.705Z,91562.05
2018-07-22T14:38:12.470Z,91559.91
2018-07-22T14:40:40.351Z,91566.25
2018-07-22T14:43:09.367Z,91552.52
2018-07-22T14:45:37.148Z,91550.99
2018-07-22T14:48:05.029Z,91545.72
2018-07-22T14:50:32.793Z,91538.78
2018-07-22T14:53:01.381Z,91534.28
2018-07-22T14:55:29.577Z,91534.45
2018-07-22T14:57:58.062Z,91529.13
2018-07-22T15:00:25.938Z,91540.47
2018-07-22T15:02:53.768Z,91531.03
2018-07-22T15:05:21.579Z,91526.81
2018-07-22T15:07:49.435Z,91527.70
2018-07-22T15:10:17.260Z,91531.26
2018-07-22T15:12:45.086Z,91531.37
2018-07-22T15:15:12.934Z,91527.00
2018-07-22T15:17:41.171Z,91518.30
2018-07-22T15:20:09.189Z,91525.05
2018-07-22T15:22:36.964Z,91515.25
2018-07-22T15:25:05.120Z,91505.66
2018-07-22T15:27:32.945Z,91506.16
2018-07-22T15:30:01.253Z,91515.39
2018-07-22T15:32:29.070Z,91514.30
2018-07-22T15:34:56.922Z,91513.54
2018-07-22T15:37:24.688Z,91511.19
2018-07-22T15:39:52.747Z,91521.93
2018-07-22T15:42:23.619Z,91526.67
2018-07-22T15:44:51.467Z,91523.95
2018-07-22T15:47:19.262Z,91518.80
2018-07-22T15:49:47.040Z,91510.95
2018-07-22T15:52:14.881Z,91506.39
2018-07-22T15:54:43.281Z,91510.19
2018-07-22T15:57:11.202Z,91505.90
2018-07-22T15:59:39.017Z,91509.23
2018-07-22T16:02:07.264Z,91509.63
2018-07-22T16:04:35.102Z,91516.54
2018-07-22T16:07:03.099Z,91511.10
2018-07-22T16:09:30.880Z,91509.44
2018-07-22T16:11:58.686Z,91514.41
2018-07-22T16:14:26.464Z,91513.03
2018-07-22T16:16:54.302Z,91512.17
2018-07-22T16:19:22.099Z,91505.34
2018-07-22T16:21:49.946Z,91505.42
2018-07-22T16:24:18.220Z,91511.20
2018-07-22T16:26:46.083Z,91511.45
2018-07-22T16:29:13.878Z,91511.41
2018-07-22T16:31:42.198Z,91507.03
2018-07-22T16:34:10.053Z,91513.36
2018-07-22T16:36:37.794Z,91510.66
2018-07-22T16:39:07.877Z,91503.27
2018-07-22T16:41:35.644Z,91512.56
2018-07-22T16:44:03.494Z,91516.30
2018-07-22T16:46:31.639Z,91526.16
2018-07-22T16:48:59.409Z,91523.50
2018-07-22T16:51:27.174Z,91519.25
2018-07-22T16:53:55.001Z,91520.55
2018-07-22T16:56:22.737Z,91511.53
2018-07-22T16:58:50.471Z,91512.38
2018-07-22T17:01:18.600Z,91508.34
2018-07-22T17:03:46.344Z,91507.73
2018-07-22T17:06:14.088Z,91509.84
2018-07-22T17:08:43.000Z,91501.52
2018-07-22T17:11:10.745Z,91500.25
2018-07-22T17:13:38.484Z,91502.42
2018-07-22T17:16:06.343Z,91508.70
2018-07-22T17:21:24.053Z,91501.84
2018-07-22T17:23:51.807Z,91500.49
2018-07-22T17:26:19.558Z,91503.26
2018-07-22T17:28:48.347Z,91511.52
2018-07-22T17:31:16.192Z,91514.94
2018-07-22T17:33:45.038Z,91512.86
2018-07-22T17:36:12.803Z,91525.92
2018-07-22T17:38:40.549Z,91531.37
2018-07-22T17:41:08.313Z,91532.01
2018-07-22T17:43:36.121Z,91541.52
2018-07-22T17:46:03.916Z,91539.98
2018-07-22T17:48:31.776Z,91540.63
2018-07-22T17:51:01.995Z,91535.81
2018-07-22T17:53:35.221Z,91535.78
2018-07-22T17:56:03.154Z,91542.72
2018-07-22T17:58:31.161Z,91534.98
2018-07-22T18:00:59.103Z,91533.55
2018-07-22T18:03:28.981Z,91531.53
2018-07-22T18:05:58.474Z,91529.44
2018-07-22T18:08:27.495Z,91536.81
2018-07-22T18:10:56.526Z,91531.85
2018-07-22T18:13:24.653Z,91523.44
2018-07-22T18:15:52.929Z,91519.98
2018-07-22T18:18:21.097Z,91529.61
2018-07-22T18:20:49.610Z,91529.38
2018-07-22T18:23:18.026Z,91537.68
2018-07-22T18:25:47.400Z,91534.23
2018-07-22T18:28:17.970Z,91535.53
2018-07-22T18:30:46.510Z,91539.71
2018-07-22T18:33:14.770Z,91548.00
2018-07-22T18:35:42.974Z,91557.64
2018-07-22T18:38:11.117Z,91556.34
2018-07-22T18:40:41.782Z,91561.25
2018-07-22T18:43:10.899Z,91574.96
2018-07-22T18:45:38.682Z,91572.27
2018-07-22T18:48:07.289Z,91563.49
2018-07-22T18:50:35.091Z,91574.27
2018-07-22T18:53:03.004Z,91577.59
2018-07-22T18:55:31.382Z,91581.52
2018-07-22T18:57:59.634Z,91575.45
2018-07-22T19:00:27.900Z,91570.12
2018-07-22T19:02:56.639Z,91576.98
2018-07-22T19:05:24.626Z,91580.39
2018-07-22T19:07:52.481Z,91606.05
2018-07-22T19:10:20.324Z,91615.69
2018-07-22T19:15:49.292Z,91651.70
2018-07-22T19:18:17.285Z,91675.28
2018-07-22T19:20:45.693Z,91684.80
2018-07-22T19:23:17.061Z,91699.03
2018-07-22T19:25:45.419Z,91699.03
2018-07-22T19:28:13.202Z,91699.89
2018-07-22T19:30:41.653Z,91694.63
2018-07-22T19:33:09.493Z,91707.80
2018-07-22T19:35:37.484Z,91702.27
2018-07-22T19:38:07.488Z,91702.36
2018-07-22T19:40:36.078Z,91701.02
2018-07-22T19:43:04.044Z,91705.27
2018-07-22T19:45:32.209Z,91690.31
2018-07-22T19:48:01.077Z,91702.12
2018-07-22T19:50:29.146Z,91706.83
2018-07-22T19:52:57.159Z,91691.69
2018-07-22T19:55:24.936Z,91686.27
2018-07-22T19:57:52.916Z,91682.27
2018-07-22T20:00:31.651Z,91676.72
2018-07-22T20:03:05.693Z,91681.95
2018-07-22T20:05:39.720Z,91677.64
2018-07-22T20:08:13.508Z,91671.31
2018-07-22T20:10:47.524Z,91675.22
2018-07-22T20:13:21.379Z,91673.09
2018-07-22T20:15:57.919Z,91672.31
2018-07-22T20:18:31.628Z,91668.70
2018-07-22T20:21:05.660Z,91672.67
2018-07-22T20:23:39.644Z,91670.08
2018-07-22T20:26:13.580Z,91671.28
2018-07-22T20:28:47.564Z,91671.10
2018-07-22T20:31:22.636Z,91670.25
2018-07-22T20:33:56.506Z,91654.19
2018-07-22T20:36:30.431Z,91652.39
2018-07-22T20:39:08.173Z,91649.02
2018-07-22T20:41:41.997Z,91640.01
2018-07-22T20:44:15.874Z,91642.67
2018-07-22T20:46:50.134Z,91651.42
2018-07-22T20:49:24.048Z,91657.90
2018-07-22T20:51:57.937Z,91655.83
2018-07-22T20:54:31.891Z,91648.17
2018-07-22T20:57:05.988Z,91645.27
2018-07-22T20:59:40.700Z,91650.67
2018-07-22T21:02:15.035Z,91654.61
2018-07-22T21:04:50.667Z,91660.83
2018-07-22T21:07:29.885Z,91665.25
2018-07-22T21:10:03.762Z,91663.41
2018-07-22T21:12:50.194Z,91672.81
2018-07-22T21:15:23.911Z,91676.25
2018-07-22T21:17:58.256Z,91683.20
2018-07-22T21:20:32.098Z,91686.11
2018-07-22T21:23:06.381Z,91690.59
2018-07-22T21:25:40.569Z,91696.16
2018-07-22T21:28:14.689Z,91712.25
2018-07-22T21:30:48.388Z,91706.17
2018-07-22T21:33:22.534Z,91700.70
2018-07-22T21:35:56.402Z,91684.53
2018-07-22T21:38:30.113Z,91691.66
2018-07-22T21:41:04.098Z,91677.22
2018-07-22T21:43:38.021Z,91678.01
2018-07-22T21:46:11.870Z,91679.48
2018-07-22T21:48:47.221Z,91677.92
2018-07-22T21:51:23.291Z,91679.31
2018-07-22T21:53:57.115Z,91677.14
2018-07-22T21:56:31.078Z,91676.33
2018-07-22T21:59:07.577Z,91679.11
2018-07-22T22:01:43.566Z,91673.77
2018-07-22T22:04:17.760Z,91679.93
2018-07-22T22:06:52.507Z,91670.61
2018-07-22T22:09:26.350Z,91676.81
2018-07-22T22:12:00.326Z,91666.77
2018-07-22T22:14:34.064Z,91675.47
2018-07-22T22:17:08.055Z,91676.19
2018-07-22T22:19:42.142Z,91680.98
2018-07-22T22:22:16.285Z,91693.26
2018-07-22T22:24:50.221Z,91703.15
2018-07-22T22:27:24.133Z,91700.12
2018-07-22T22:29:57.968Z,91692.53
2018-07-22T22:32:31.816Z,91694.69
2018-07-22T22:35:06.210Z,91690.88
2018-07-22T22:37:41.056Z,91683.99
2018-07-22T22:40:15.501Z,91695.13
2018-07-22T22:42:49.424Z,91684.20
2018-07-22T22:45:23.259Z,91685.37
2018-07-22T22:47:57.151Z,91680.94
2018-07-22T22:50:31.532Z,91687.57
2018-07-22T22:53:05.472Z,91702.41
2018-07-22T22:55:39.230Z,91699.87
2018-07-22T22:58:24.398Z,91706.98
2018-07-22T23:00:58.325Z,91698.28
2018-07-22T23:03:32.230Z,91693.02
2018-07-22T23:06:06.409Z,91691.62
2018-07-22T23:08:40.353Z,91691.23
2018-07-22T23:11:14.082Z,91694.37
2018-07-22T23:13:47.944Z,91683.73
2018-07-22T23:16:21.995Z,91682.77
2018-07-22T23:18:55.754Z,91683.80
2018-07-22T23:21:30.085Z,91688.95
2018-07-22T23:24:04.167Z,91681.91
2018-07-22T23:26:38.200Z,91677.05
2018-07-22T23:29:13.219Z,91668.84
2018-07-22T23:31:47.209Z,91658.45
2018-07-22T23:34:21.097Z,91656.17
2018-07-22T23:36:55.426Z,91659.95
2018-07-22T23:39:29.201Z,91666.52
2018-07-22T23:42:03.070Z,91671.08
2018-07-22T23:44:37.208Z,91678.91
2018-07-22T23:47:11.095Z,91680.27
2018-07-22T23:49:44.997Z,91674.90
2018-07-22T23:52:18.981Z,91661.51
2018-07-22T23:54:53.076Z,91660.00
2018-07-22T23:57:26.917Z,91658.37
